This is the latest recevied weather packets stored in our database for station/object PP5FMM-13. If no packets are shown the sender has not sent any weather packets the latest 10 day(s).
| Time | Temp. | Humidity | Pressure | Rain* | Wind** | Luminosity | Snow |
|---|---|---|---|---|---|---|---|
| 1777299329 | 29.44° C | 80% | 1012.7 hPa | - | - | - | - |
| 1777299026 | 29.44° C | 79% | 1012.7 hPa | - | - | - | - |
| 1777298726 | 29.44° C | 79% | 1012.8 hPa | - | - | - | - |
| 1777298426 | 29.44° C | 80% | 1012.9 hPa | - | - | - | - |
| 1777298126 | 29.44° C | 79% | 1013 hPa | - | - | - | - |
| 1777297826 | 29.44° C | 80% | 1013 hPa | - | - | - | - |
| 1777297526 | 29.44° C | 80% | 1013.1 hPa | - | - | - | - |
| 1777297226 | 29.44° C | 79% | 1013.1 hPa | - | - | - | - |
| 1777296926 | 30° C | 76% | 1013.2 hPa | - | - | - | - |
| 1777296626 | 31.67° C | 74% | 1013.3 hPa | - | - | - | - |
| 1777296326 | 32.22° C | 72% | 1013.4 hPa | - | - | - | - |
| 1777296026 | 32.22° C | 72% | 1013.4 hPa | - | - | - | - |
| 1777295726 | 32.22° C | 72% | 1013.4 hPa | - | - | - | - |
| 1777295426 | 32.22° C | 71% | 1013.4 hPa | - | - | - | - |
| 1777295126 | 32.22° C | 70% | 1013.5 hPa | - | - | - | - |
| 1777294826 | 31.67° C | 71% | 1013.4 hPa | - | - | - | - |
| 1777294526 | 31.67° C | 69% | 1013.5 hPa | - | - | - | - |
| 1777294226 | 31.67° C | 70% | 1013.6 hPa | - | - | - | - |
| 1777293926 | 31.67° C | 69% | 1013.5 hPa | - | - | - | - |
| 1777293626 | 31.11° C | 72% | 1013.4 hPa | - | - | - | - |
| 1777293326 | 31.11° C | 75% | 1013.4 hPa | - | - | - | - |
| 1777293026 | 31.11° C | 78% | 1013.4 hPa | - | - | - | - |
| 1777292726 | 31.67° C | 79% | 1013.3 hPa | - | - | - | - |
| 1777292426 | 31.67° C | 81% | 1013.2 hPa | - | - | - | - |
| 1777292126 | 31.11° C | 82% | 1013.2 hPa | - | - | - | - |
* Rain since midnight (hover to see other rain measurements)
** Current wind speed in m/s (hover to see current wind gust speed)